Metar del Interior

METAR SGME 281800Z 00000KT CAVOK 30/05 Q1010=
METAR SGLV 281800Z 09002KT 9999 SCT200 25/17 Q1015=
METAR SGPJ 281800Z 17010KT 5000 BR FEW070 SCT200 22/17 Q1014=
METAR SGPC 281800Z 11012KT CAVOK 28/07 Q1012=
METAR SGCO 281800Z 16015KT CAVOK 27/11 Q1013=
METAR SGSP 281800Z 14002KT 9999 SCT033 26/12 Q1011=
METAR SGGR 281800Z 09004KT 9999 OVC010 21/19 Q1010=
METAR SGVR 281800Z 18005KT CAVOK 26/13 Q1012=
METAR SGPI 281800Z 14010KT CAVOK 26/07 Q1014=
METAR SGSJ 281800Z 10010KT CAVOK 27/14 Q1012=

TAF

TAF SGAS 281030Z 2812/2912 18012KT 9999 BKN027 TX27/2819Z TN17/2909Z BECMG 2817/2820 15010KT
CAVOK BECMG 2900/2903 VRB03KT BECMG 2909/2912 05007KT=

TAF SGES 281030Z 2812/2912 24012KT 8000 -RA BKN027 TX26/2819Z TN17/2909Z BECMG 2814/2817
18010KT 9999 SCT027 BECMG 2820/2823 24010KT CAVOK BECMG 2900/2903 VRB03KT PROB30 TEMPO
2908/2910 00000KT 7000 NSC=

TAF SGEN 281030Z 2812/2912 21012KT 9999 -RA BKN020 TX24/2819Z TN14/2909Z BECMG 2814/2817
9999 BKN027 BECMG 2821/2900 17010KT CAVOK BECMG 2902/2905 VRB03KT BECMG 2909/2912 05007KT=

TAF SGCO 281030Z 2812/2912 21012KT 9000 -TSRA BKN027 FEW040CB TX28/2819Z TN20/2909Z BECMG
2813/2816 9999 BKN027 BECMG 2821/2900 15007KT CAVOK BECMG 2902/2905 VRB03KT BECMG 2909/2912
05007KT=

La siguiente información es orientativa, no constituyendo documentación de vuelo. Para disponer de la misma se deberá solicitar a la Oficina Vigilancia Meteorológica (OVM) / Oficina ARO/AIS (Aeronautical Report Office/Aeronautical Information Service) del aeródromo de salida. Asimismo la Dirección de Meteorología e Hidrología no se responsabiliza por los perjuicios que pudieran ocasionarse a los "usuarios" y/o a terceros y/o a bienes, debido a las acciones o decisiones adoptadas o dejadas de adoptar en función de la información meteorológica suministrada.